sensor_id;sensor_type;location;lat;lon;timestamp;temperature;humidity
13569;DHT22;6856;51.460;7.158;2022-12-07T00:00:25;8.30;71.70
13569;DHT22;6856;51.460;7.158;2022-12-07T00:02:59;8.20;71.60
13569;DHT22;6856;51.460;7.158;2022-12-07T00:05:33;8.30;71.80
13569;DHT22;6856;51.460;7.158;2022-12-07T00:08:08;8.30;71.70
13569;DHT22;6856;51.460;7.158;2022-12-07T00:10:42;8.30;71.70
13569;DHT22;6856;51.460;7.158;2022-12-07T00:13:16;8.20;71.60
13569;DHT22;6856;51.460;7.158;2022-12-07T00:15:50;8.30;71.70
13569;DHT22;6856;51.460;7.158;2022-12-07T00:18:23;8.30;71.70
13569;DHT22;6856;51.460;7.158;2022-12-07T00:21:02;8.20;71.60
13569;DHT22;6856;51.460;7.158;2022-12-07T00:23:38;8.30;71.80
13569;DHT22;6856;51.460;7.158;2022-12-07T00:26:15;8.30;71.80
13569;DHT22;6856;51.460;7.158;2022-12-07T00:28:52;8.30;71.90
13569;DHT22;6856;51.460;7.158;2022-12-07T00:31:31;8.30;71.90
13569;DHT22;6856;51.460;7.158;2022-12-07T00:34:07;8.30;72.00
13569;DHT22;6856;51.460;7.158;2022-12-07T00:36:45;8.30;71.90
13569;DHT22;6856;51.460;7.158;2022-12-07T00:39:22;8.30;71.80
13569;DHT22;6856;51.460;7.158;2022-12-07T00:41:55;8.30;71.80
13569;DHT22;6856;51.460;7.158;2022-12-07T00:44:30;8.30;71.80
13569;DHT22;6856;51.460;7.158;2022-12-07T00:47:04;8.30;71.80
13569;DHT22;6856;51.460;7.158;2022-12-07T00:49:38;8.30;71.80
13569;DHT22;6856;51.460;7.158;2022-12-07T00:52:14;8.30;71.80
13569;DHT22;6856;51.460;7.158;2022-12-07T00:54:50;8.30;71.90
13569;DHT22;6856;51.460;7.158;2022-12-07T00:57:24;8.30;71.80
13569;DHT22;6856;51.460;7.158;2022-12-07T00:59:58;8.30;71.80
13569;DHT22;6856;51.460;7.158;2022-12-07T01:02:33;8.30;72.60
13569;DHT22;6856;51.460;7.158;2022-12-07T01:05:09;8.30;71.90
13569;DHT22;6856;51.460;7.158;2022-12-07T01:07:43;8.30;71.90
13569;DHT22;6856;51.460;7.158;2022-12-07T01:10:20;8.30;71.90
13569;DHT22;6856;51.460;7.158;2022-12-07T01:12:54;8.40;71.90
13569;DHT22;6856;51.460;7.158;2022-12-07T01:15:28;8.50;71.90
13569;DHT22;6856;51.460;7.158;2022-12-07T01:18:03;8.40;71.90
13569;DHT22;6856;51.460;7.158;2022-12-07T01:20:36;8.30;71.80
13569;DHT22;6856;51.460;7.158;2022-12-07T01:23:10;8.50;71.90
13569;DHT22;6856;51.460;7.158;2022-12-07T01:25:54;8.30;71.90
13569;DHT22;6856;51.460;7.158;2022-12-07T01:28:29;8.40;72.10
13569;DHT22;6856;51.460;7.158;2022-12-07T01:31:05;8.40;71.90
13569;DHT22;6856;51.460;7.158;2022-12-07T01:33:43;8.40;72.00
13569;DHT22;6856;51.460;7.158;2022-12-07T01:36:21;8.30;72.00
13569;DHT22;6856;51.460;7.158;2022-12-07T01:38:57;8.40;72.00
13569;DHT22;6856;51.460;7.158;2022-12-07T01:41:37;8.40;72.00
13569;DHT22;6856;51.460;7.158;2022-12-07T01:44:20;8.40;72.00
13569;DHT22;6856;51.460;7.158;2022-12-07T01:46:57;8.50;72.10
13569;DHT22;6856;51.460;7.158;2022-12-07T01:49:35;8.40;72.00
13569;DHT22;6856;51.460;7.158;2022-12-07T01:52:14;8.30;72.00
13569;DHT22;6856;51.460;7.158;2022-12-07T01:54:54;8.40;72.00
13569;DHT22;6856;51.460;7.158;2022-12-07T01:57:35;8.40;71.90
13569;DHT22;6856;51.460;7.158;2022-12-07T02:00:13;8.60;72.10
13569;DHT22;6856;51.460;7.158;2022-12-07T02:02:51;8.40;72.00
13569;DHT22;6856;51.460;7.158;2022-12-07T02:05:28;8.40;72.00
13569;DHT22;6856;51.460;7.158;2022-12-07T02:08:04;8.30;71.90
13569;DHT22;6856;51.460;7.158;2022-12-07T02:10:39;8.30;71.90
13569;DHT22;6856;51.460;7.158;2022-12-07T02:13:17;8.30;71.90
13569;DHT22;6856;51.460;7.158;2022-12-07T02:16:11;8.30;71.80
13569;DHT22;6856;51.460;7.158;2022-12-07T02:19:03;8.30;71.90
13569;DHT22;6856;51.460;7.158;2022-12-07T02:22:16;8.30;71.80
13569;DHT22;6856;51.460;7.158;2022-12-07T02:25:09;8.30;71.80
13569;DHT22;6856;51.460;7.158;2022-12-07T02:27:52;8.30;71.80
13569;DHT22;6856;51.460;7.158;2022-12-07T02:30:35;8.30;71.80
13569;DHT22;6856;51.460;7.158;2022-12-07T02:33:21;8.30;72.50
13569;DHT22;6856;51.460;7.158;2022-12-07T02:36:02;8.30;71.80
13569;DHT22;6856;51.460;7.158;2022-12-07T02:38:45;8.20;71.70
13569;DHT22;6856;51.460;7.158;2022-12-07T02:41:27;8.20;71.70
13569;DHT22;6856;51.460;7.158;2022-12-07T02:44:08;8.20;71.80
13569;DHT22;6856;51.460;7.158;2022-12-07T02:46:53;8.30;71.90
13569;DHT22;6856;51.460;7.158;2022-12-07T02:49:29;8.30;71.90
13569;DHT22;6856;51.460;7.158;2022-12-07T02:52:04;8.30;71.90
13569;DHT22;6856;51.460;7.158;2022-12-07T02:54:39;8.30;71.80
13569;DHT22;6856;51.460;7.158;2022-12-07T02:57:32;8.30;71.70
13569;DHT22;6856;51.460;7.158;2022-12-07T03:00:24;8.20;71.70
13569;DHT22;6856;51.460;7.158;2022-12-07T03:03:03;8.30;71.70
13569;DHT22;6856;51.460;7.158;2022-12-07T03:05:59;8.30;71.80
13569;DHT22;6856;51.460;7.158;2022-12-07T03:08:47;8.30;71.80
13569;DHT22;6856;51.460;7.158;2022-12-07T03:11:42;8.20;71.60
13569;DHT22;6856;51.460;7.158;2022-12-07T03:14:24;8.20;71.60
13569;DHT22;6856;51.460;7.158;2022-12-07T03:17:07;8.30;71.60
13569;DHT22;6856;51.460;7.158;2022-12-07T03:19:49;8.40;71.60
13569;DHT22;6856;51.460;7.158;2022-12-07T03:22:29;8.20;71.40
13569;DHT22;6856;51.460;7.158;2022-12-07T03:25:10;8.20;71.40
13569;DHT22;6856;51.460;7.158;2022-12-07T03:27:48;8.20;71.30
13569;DHT22;6856;51.460;7.158;2022-12-07T03:30:31;8.10;71.20
13569;DHT22;6856;51.460;7.158;2022-12-07T03:33:12;8.20;71.20
13569;DHT22;6856;51.460;7.158;2022-12-07T03:35:56;8.10;71.00
13569;DHT22;6856;51.460;7.158;2022-12-07T03:38:37;8.10;71.10
13569;DHT22;6856;51.460;7.158;2022-12-07T03:41:21;8.10;70.90
13569;DHT22;6856;51.460;7.158;2022-12-07T03:43:57;8.10;70.90
13569;DHT22;6856;51.460;7.158;2022-12-07T03:46:36;8.00;70.90
13569;DHT22;6856;51.460;7.158;2022-12-07T03:49:21;8.00;70.90
13569;DHT22;6856;51.460;7.158;2022-12-07T03:52:08;8.00;70.90
13569;DHT22;6856;51.460;7.158;2022-12-07T03:54:54;7.90;70.90
13569;DHT22;6856;51.460;7.158;2022-12-07T03:57:33;8.00;71.00
13569;DHT22;6856;51.460;7.158;2022-12-07T04:00:12;7.90;70.90
13569;DHT22;6856;51.460;7.158;2022-12-07T04:02:47;7.90;70.90
13569;DHT22;6856;51.460;7.158;2022-12-07T04:05:22;7.90;71.00
13569;DHT22;6856;51.460;7.158;2022-12-07T04:07:58;7.90;71.10
13569;DHT22;6856;51.460;7.158;2022-12-07T04:10:32;7.90;71.10
13569;DHT22;6856;51.460;7.158;2022-12-07T04:13:08;7.90;71.10
13569;DHT22;6856;51.460;7.158;2022-12-07T04:15:42;7.90;71.20
13569;DHT22;6856;51.460;7.158;2022-12-07T04:18:17;7.80;71.10
13569;DHT22;6856;51.460;7.158;2022-12-07T04:20:51;7.90;71.20
13569;DHT22;6856;51.460;7.158;2022-12-07T04:23:26;7.80;71.10
13569;DHT22;6856;51.460;7.158;2022-12-07T04:26:00;7.80;71.80
13569;DHT22;6856;51.460;7.158;2022-12-07T04:28:34;7.80;71.20
13569;DHT22;6856;51.460;7.158;2022-12-07T04:31:10;7.80;71.00
13569;DHT22;6856;51.460;7.158;2022-12-07T04:33:44;8.00;71.20
13569;DHT22;6856;51.460;7.158;2022-12-07T04:36:19;7.70;71.10
13569;DHT22;6856;51.460;7.158;2022-12-07T04:38:54;7.80;71.10
13569;DHT22;6856;51.460;7.158;2022-12-07T04:41:31;7.80;71.10
13569;DHT22;6856;51.460;7.158;2022-12-07T04:44:05;7.80;71.10
13569;DHT22;6856;51.460;7.158;2022-12-07T04:46:41;7.80;71.10
13569;DHT22;6856;51.460;7.158;2022-12-07T04:49:15;7.80;71.10
13569;DHT22;6856;51.460;7.158;2022-12-07T04:51:50;7.90;71.20
13569;DHT22;6856;51.460;7.158;2022-12-07T04:54:27;8.00;71.20
13569;DHT22;6856;51.460;7.158;2022-12-07T04:57:01;7.80;70.90
13569;DHT22;6856;51.460;7.158;2022-12-07T04:59:35;7.80;71.00
13569;DHT22;6856;51.460;7.158;2022-12-07T05:02:16;7.70;70.90
13569;DHT22;6856;51.460;7.158;2022-12-07T05:04:49;7.70;70.90
13569;DHT22;6856;51.460;7.158;2022-12-07T05:07:23;7.70;70.90
13569;DHT22;6856;51.460;7.158;2022-12-07T05:09:58;7.80;70.90
13569;DHT22;6856;51.460;7.158;2022-12-07T05:12:33;7.70;70.80
13569;DHT22;6856;51.460;7.158;2022-12-07T05:15:08;7.70;70.90
13569;DHT22;6856;51.460;7.158;2022-12-07T05:17:43;7.70;71.00
13569;DHT22;6856;51.460;7.158;2022-12-07T05:20:16;7.70;70.90
13569;DHT22;6856;51.460;7.158;2022-12-07T05:22:50;7.70;71.30
13569;DHT22;6856;51.460;7.158;2022-12-07T05:25:26;7.70;70.90
13569;DHT22;6856;51.460;7.158;2022-12-07T05:28:00;7.70;70.90
13569;DHT22;6856;51.460;7.158;2022-12-07T05:30:34;7.70;70.90
13569;DHT22;6856;51.460;7.158;2022-12-07T05:33:08;7.90;71.10
13569;DHT22;6856;51.460;7.158;2022-12-07T05:35:42;7.60;70.80
13569;DHT22;6856;51.460;7.158;2022-12-07T05:38:16;7.60;70.80
13569;DHT22;6856;51.460;7.158;2022-12-07T05:40:52;7.60;70.90
13569;DHT22;6856;51.460;7.158;2022-12-07T05:43:27;7.60;71.00
13569;DHT22;6856;51.460;7.158;2022-12-07T05:46:01;7.60;70.90
13569;DHT22;6856;51.460;7.158;2022-12-07T05:48:35;7.60;70.90
13569;DHT22;6856;51.460;7.158;2022-12-07T05:51:09;7.60;71.00
13569;DHT22;6856;51.460;7.158;2022-12-07T05:53:42;7.60;71.00
13569;DHT22;6856;51.460;7.158;2022-12-07T05:56:18;7.60;71.00
13569;DHT22;6856;51.460;7.158;2022-12-07T05:58:52;7.60;71.00
13569;DHT22;6856;51.460;7.158;2022-12-07T06:01:45;7.60;71.00
13569;DHT22;6856;51.460;7.158;2022-12-07T06:04:19;7.60;71.00
13569;DHT22;6856;51.460;7.158;2022-12-07T06:06:54;7.60;71.70
13569;DHT22;6856;51.460;7.158;2022-12-07T06:09:29;7.60;71.10
13569;DHT22;6856;51.460;7.158;2022-12-07T06:12:06;7.60;71.10
13569;DHT22;6856;51.460;7.158;2022-12-07T06:14:57;7.60;71.00
13569;DHT22;6856;51.460;7.158;2022-12-07T06:17:34;7.60;71.10
13569;DHT22;6856;51.460;7.158;2022-12-07T06:20:08;7.60;71.00
13569;DHT22;6856;51.460;7.158;2022-12-07T06:22:42;7.50;71.00
13569;DHT22;6856;51.460;7.158;2022-12-07T06:25:16;7.60;71.00
13569;DHT22;6856;51.460;7.158;2022-12-07T06:27:52;7.60;71.00
13569;DHT22;6856;51.460;7.158;2022-12-07T06:30:27;7.60;71.00
13569;DHT22;6856;51.460;7.158;2022-12-07T06:33:00;7.70;71.00
13569;DHT22;6856;51.460;7.158;2022-12-07T06:35:34;7.60;71.00
13569;DHT22;6856;51.460;7.158;2022-12-07T06:38:08;7.60;70.90
13569;DHT22;6856;51.460;7.158;2022-12-07T06:40:42;7.60;70.90
13569;DHT22;6856;51.460;7.158;2022-12-07T06:43:17;7.60;70.90
13569;DHT22;6856;51.460;7.158;2022-12-07T06:45:51;7.60;71.10
13569;DHT22;6856;51.460;7.158;2022-12-07T06:48:26;7.50;70.90
13569;DHT22;6856;51.460;7.158;2022-12-07T06:51:00;7.60;70.80
13569;DHT22;6856;51.460;7.158;2022-12-07T06:53:34;7.60;70.80
13569;DHT22;6856;51.460;7.158;2022-12-07T06:56:08;7.50;70.80
13569;DHT22;6856;51.460;7.158;2022-12-07T06:58:43;7.50;70.70
13569;DHT22;6856;51.460;7.158;2022-12-07T07:01:18;7.50;70.70
13569;DHT22;6856;51.460;7.158;2022-12-07T07:03:52;7.50;70.70
13569;DHT22;6856;51.460;7.158;2022-12-07T07:06:27;7.60;70.70
13569;DHT22;6856;51.460;7.158;2022-12-07T07:09:02;7.50;70.60
13569;DHT22;6856;51.460;7.158;2022-12-07T07:11:36;7.50;70.70
13569;DHT22;6856;51.460;7.158;2022-12-07T07:14:12;7.50;70.70
13569;DHT22;6856;51.460;7.158;2022-12-07T07:16:51;7.50;70.70
13569;DHT22;6856;51.460;7.158;2022-12-07T07:19:25;7.50;70.60
13569;DHT22;6856;51.460;7.158;2022-12-07T07:21:59;7.50;70.60
13569;DHT22;6856;51.460;7.158;2022-12-07T07:24:33;7.50;70.70
13569;DHT22;6856;51.460;7.158;2022-12-07T07:27:07;7.50;70.60
13569;DHT22;6856;51.460;7.158;2022-12-07T07:29:43;7.50;70.70
13569;DHT22;6856;51.460;7.158;2022-12-07T07:32:17;7.50;70.70
13569;DHT22;6856;51.460;7.158;2022-12-07T07:34:51;7.60;70.80
13569;DHT22;6856;51.460;7.158;2022-12-07T07:37:25;7.70;70.90
13569;DHT22;6856;51.460;7.158;2022-12-07T07:39:59;7.50;70.70
13569;DHT22;6856;51.460;7.158;2022-12-07T07:42:34;7.50;70.60
13569;DHT22;6856;51.460;7.158;2022-12-07T07:45:10;7.50;70.50
13569;DHT22;6856;51.460;7.158;2022-12-07T07:47:44;7.50;70.60
13569;DHT22;6856;51.460;7.158;2022-12-07T07:50:19;7.50;70.60
13569;DHT22;6856;51.460;7.158;2022-12-07T07:52:53;7.50;70.60
13569;DHT22;6856;51.460;7.158;2022-12-07T07:55:27;7.50;70.60
13569;DHT22;6856;51.460;7.158;2022-12-07T07:58:01;7.50;70.50
13569;DHT22;6856;51.460;7.158;2022-12-07T08:00:36;7.50;70.50
13569;DHT22;6856;51.460;7.158;2022-12-07T08:03:10;7.50;70.50
13569;DHT22;6856;51.460;7.158;2022-12-07T08:05:44;7.70;70.60
13569;DHT22;6856;51.460;7.158;2022-12-07T08:08:18;7.50;70.60
13569;DHT22;6856;51.460;7.158;2022-12-07T08:10:52;7.50;70.70
13569;DHT22;6856;51.460;7.158;2022-12-07T08:13:26;7.50;70.80
13569;DHT22;6856;51.460;7.158;2022-12-07T08:16:06;7.50;70.70
13569;DHT22;6856;51.460;7.158;2022-12-07T08:18:42;7.50;70.80
13569;DHT22;6856;51.460;7.158;2022-12-07T08:21:16;7.50;70.70
13569;DHT22;6856;51.460;7.158;2022-12-07T08:23:50;7.50;70.70
13569;DHT22;6856;51.460;7.158;2022-12-07T08:26:25;7.50;70.80
13569;DHT22;6856;51.460;7.158;2022-12-07T08:28:59;7.60;70.90
13569;DHT22;6856;51.460;7.158;2022-12-07T08:31:35;7.50;70.80
13569;DHT22;6856;51.460;7.158;2022-12-07T08:34:11;7.60;70.90
13569;DHT22;6856;51.460;7.158;2022-12-07T08:36:46;7.60;71.00
13569;DHT22;6856;51.460;7.158;2022-12-07T08:39:21;7.80;71.00
13569;DHT22;6856;51.460;7.158;2022-12-07T08:42:04;7.60;71.10
13569;DHT22;6856;51.460;7.158;2022-12-07T08:44:38;7.60;71.00
13569;DHT22;6856;51.460;7.158;2022-12-07T08:47:14;7.60;70.90
13569;DHT22;6856;51.460;7.158;2022-12-07T08:49:51;7.60;71.00
13569;DHT22;6856;51.460;7.158;2022-12-07T08:52:27;7.70;71.10
13569;DHT22;6856;51.460;7.158;2022-12-07T08:55:03;7.70;71.10
13569;DHT22;6856;51.460;7.158;2022-12-07T08:57:39;7.70;71.20
13569;DHT22;6856;51.460;7.158;2022-12-07T09:00:15;7.90;71.40
13569;DHT22;6856;51.460;7.158;2022-12-07T09:02:52;7.70;72.00
13569;DHT22;6856;51.460;7.158;2022-12-07T09:05:26;7.70;71.20
13569;DHT22;6856;51.460;7.158;2022-12-07T09:08:01;7.70;71.10
13569;DHT22;6856;51.460;7.158;2022-12-07T09:10:35;7.80;71.20
13569;DHT22;6856;51.460;7.158;2022-12-07T09:13:09;7.80;71.10
13569;DHT22;6856;51.460;7.158;2022-12-07T09:15:43;7.80;71.00
13569;DHT22;6856;51.460;7.158;2022-12-07T09:18:19;7.80;71.00
13569;DHT22;6856;51.460;7.158;2022-12-07T09:20:54;7.80;70.90
13569;DHT22;6856;51.460;7.158;2022-12-07T09:23:28;8.00;71.00
13569;DHT22;6856;51.460;7.158;2022-12-07T09:26:02;7.80;70.90
13569;DHT22;6856;51.460;7.158;2022-12-07T09:28:41;7.80;71.00
13569;DHT22;6856;51.460;7.158;2022-12-07T09:31:15;7.80;71.00
13569;DHT22;6856;51.460;7.158;2022-12-07T09:33:58;7.80;71.00
13569;DHT22;6856;51.460;7.158;2022-12-07T09:36:35;7.90;71.30
13569;DHT22;6856;51.460;7.158;2022-12-07T09:39:08;7.90;71.20
13569;DHT22;6856;51.460;7.158;2022-12-07T09:41:44;7.90;71.20
13569;DHT22;6856;51.460;7.158;2022-12-07T09:44:23;7.90;71.20
13569;DHT22;6856;51.460;7.158;2022-12-07T09:46:58;8.00;72.00
13569;DHT22;6856;51.460;7.158;2022-12-07T09:49:34;8.00;71.20
13569;DHT22;6856;51.460;7.158;2022-12-07T09:52:19;8.00;71.20
13569;DHT22;6856;51.460;7.158;2022-12-07T09:55:00;8.00;71.10
13569;DHT22;6856;51.460;7.158;2022-12-07T09:57:34;8.00;71.00
13569;DHT22;6856;51.460;7.158;2022-12-07T10:00:13;8.00;70.80
13569;DHT22;6856;51.460;7.158;2022-12-07T10:02:52;8.00;70.90
13569;DHT22;6856;51.460;7.158;2022-12-07T10:05:34;8.10;70.80
13569;DHT22;6856;51.460;7.158;2022-12-07T10:08:11;8.10;70.90
13569;DHT22;6856;51.460;7.158;2022-12-07T10:10:51;8.10;71.00
13569;DHT22;6856;51.460;7.158;2022-12-07T10:13:35;8.10;70.90
13569;DHT22;6856;51.460;7.158;2022-12-07T10:16:32;8.10;70.70
13569;DHT22;6856;51.460;7.158;2022-12-07T10:19:20;8.10;70.70
13569;DHT22;6856;51.460;7.158;2022-12-07T10:22:16;8.20;70.70
13569;DHT22;6856;51.460;7.158;2022-12-07T10:24:50;8.20;70.50
13569;DHT22;6856;51.460;7.158;2022-12-07T10:27:29;8.20;70.40
13569;DHT22;6856;51.460;7.158;2022-12-07T10:30:12;8.20;70.50
13569;DHT22;6856;51.460;7.158;2022-12-07T10:32:49;8.20;70.50
13569;DHT22;6856;51.460;7.158;2022-12-07T10:35:26;8.30;70.50
13569;DHT22;6856;51.460;7.158;2022-12-07T10:38:16;8.30;70.50
13569;DHT22;6856;51.460;7.158;2022-12-07T10:41:03;8.30;70.40
13569;DHT22;6856;51.460;7.158;2022-12-07T10:43:47;8.30;70.40
13569;DHT22;6856;51.460;7.158;2022-12-07T10:46:43;8.30;70.30
13569;DHT22;6856;51.460;7.158;2022-12-07T10:49:50;8.40;70.30
13569;DHT22;6856;51.460;7.158;2022-12-07T10:53:26;8.40;70.40
13569;DHT22;6856;51.460;7.158;2022-12-07T10:56:28;8.40;70.40
13569;DHT22;6856;51.460;7.158;2022-12-07T11:06:03;8.50;70.10
13569;DHT22;6856;51.460;7.158;2022-12-07T11:08:57;8.50;69.90
13569;DHT22;6856;51.460;7.158;2022-12-07T11:11:41;8.70;70.00
13569;DHT22;6856;51.460;7.158;2022-12-07T11:14:24;8.50;69.90
13569;DHT22;6856;51.460;7.158;2022-12-07T11:17:07;8.50;69.70
13569;DHT22;6856;51.460;7.158;2022-12-07T11:20:00;8.50;69.70
13569;DHT22;6856;51.460;7.158;2022-12-07T11:22:44;8.50;69.60
13569;DHT22;6856;51.460;7.158;2022-12-07T11:25:31;8.70;70.40
13569;DHT22;6856;51.460;7.158;2022-12-07T11:28:20;8.60;69.60
13569;DHT22;6856;51.460;7.158;2022-12-07T11:31:12;8.60;69.50
13569;DHT22;6856;51.460;7.158;2022-12-07T11:34:05;8.60;69.40
13569;DHT22;6856;51.460;7.158;2022-12-07T11:36:48;8.60;69.50
13569;DHT22;6856;51.460;7.158;2022-12-07T11:39:30;8.60;69.40
13569;DHT22;6856;51.460;7.158;2022-12-07T11:42:15;8.40;69.10
13569;DHT22;6856;51.460;7.158;2022-12-07T11:44:58;8.70;69.20
13569;DHT22;6856;51.460;7.158;2022-12-07T11:47:40;8.70;69.10
13569;DHT22;6856;51.460;7.158;2022-12-07T11:50:27;8.70;69.10
13569;DHT22;6856;51.460;7.158;2022-12-07T11:53:16;8.70;69.00
13569;DHT22;6856;51.460;7.158;2022-12-07T11:55:57;8.80;69.00
13569;DHT22;6856;51.460;7.158;2022-12-07T12:01:45;8.80;69.00
13569;DHT22;6856;51.460;7.158;2022-12-07T12:04:31;8.90;69.00
13569;DHT22;6856;51.460;7.158;2022-12-07T12:07:16;9.10;69.10
13569;DHT22;6856;51.460;7.158;2022-12-07T12:10:18;8.90;68.70
13569;DHT22;6856;51.460;7.158;2022-12-07T12:13:11;9.00;68.70
13569;DHT22;6856;51.460;7.158;2022-12-07T12:17:03;9.00;68.60
13569;DHT22;6856;51.460;7.158;2022-12-07T12:20:03;9.00;68.40
13569;DHT22;6856;51.460;7.158;2022-12-07T12:22:50;9.00;68.40
13569;DHT22;6856;51.460;7.158;2022-12-07T12:25:36;9.00;68.20
13569;DHT22;6856;51.460;7.158;2022-12-07T12:28:24;9.00;68.10
13569;DHT22;6856;51.460;7.158;2022-12-07T12:31:09;9.10;68.00
13569;DHT22;6856;51.460;7.158;2022-12-07T12:33:50;9.10;68.00
13569;DHT22;6856;51.460;7.158;2022-12-07T12:36:26;9.10;67.80
13569;DHT22;6856;51.460;7.158;2022-12-07T12:39:17;9.10;67.80
13569;DHT22;6856;51.460;7.158;2022-12-07T12:41:55;9.10;67.60
13569;DHT22;6856;51.460;7.158;2022-12-07T12:47:59;9.10;67.50
13569;DHT22;6856;51.460;7.158;2022-12-07T12:50:36;9.10;67.30
13569;DHT22;6856;51.460;7.158;2022-12-07T12:53:16;9.10;67.50
13569;DHT22;6856;51.460;7.158;2022-12-07T12:56:14;9.10;67.50
13569;DHT22;6856;51.460;7.158;2022-12-07T12:59:22;9.10;67.50
13569;DHT22;6856;51.460;7.158;2022-12-07T13:02:16;9.10;67.40
13569;DHT22;6856;51.460;7.158;2022-12-07T13:04:56;9.10;67.40
13569;DHT22;6856;51.460;7.158;2022-12-07T13:07:55;9.40;67.60
13569;DHT22;6856;51.460;7.158;2022-12-07T13:10:42;9.10;67.40
13569;DHT22;6856;51.460;7.158;2022-12-07T13:13:32;9.10;67.30
13569;DHT22;6856;51.460;7.158;2022-12-07T13:16:39;9.20;67.40
13569;DHT22;6856;51.460;7.158;2022-12-07T13:22:53;9.10;67.30
13569;DHT22;6856;51.460;7.158;2022-12-07T13:25:46;9.10;67.40
13569;DHT22;6856;51.460;7.158;2022-12-07T13:28:27;9.10;67.30
13569;DHT22;6856;51.460;7.158;2022-12-07T13:31:33;9.40;67.50
13569;DHT22;6856;51.460;7.158;2022-12-07T13:34:31;9.20;67.70
13569;DHT22;6856;51.460;7.158;2022-12-07T13:37:14;9.10;67.20
13569;DHT22;6856;51.460;7.158;2022-12-07T13:40:18;9.10;67.20
13569;DHT22;6856;51.460;7.158;2022-12-07T13:42:58;9.10;67.20
13569;DHT22;6856;51.460;7.158;2022-12-07T13:45:34;9.10;67.30
13569;DHT22;6856;51.460;7.158;2022-12-07T13:48:30;9.10;67.40
13569;DHT22;6856;51.460;7.158;2022-12-07T13:51:12;9.10;67.40
13569;DHT22;6856;51.460;7.158;2022-12-07T13:53:54;9.10;67.50
13569;DHT22;6856;51.460;7.158;2022-12-07T13:56:34;9.10;67.50
13569;DHT22;6856;51.460;7.158;2022-12-07T13:59:14;9.20;67.50
13569;DHT22;6856;51.460;7.158;2022-12-07T14:01:51;9.20;67.50
13569;DHT22;6856;51.460;7.158;2022-12-07T14:04:34;9.20;67.50
13569;DHT22;6856;51.460;7.158;2022-12-07T14:07:23;9.30;67.50
13569;DHT22;6856;51.460;7.158;2022-12-07T14:09:59;9.30;67.50
13569;DHT22;6856;51.460;7.158;2022-12-07T14:13:22;9.30;67.50
13569;DHT22;6856;51.460;7.158;2022-12-07T14:16:03;9.30;67.20
13569;DHT22;6856;51.460;7.158;2022-12-07T14:18:51;9.30;67.20
13569;DHT22;6856;51.460;7.158;2022-12-07T14:21:26;9.40;67.10
13569;DHT22;6856;51.460;7.158;2022-12-07T14:24:16;9.30;67.00
13569;DHT22;6856;51.460;7.158;2022-12-07T14:26:52;9.30;66.70
13569;DHT22;6856;51.460;7.158;2022-12-07T14:29:32;9.40;66.90
13569;DHT22;6856;51.460;7.158;2022-12-07T14:32:27;9.30;66.70
13569;DHT22;6856;51.460;7.158;2022-12-07T14:35:08;9.30;66.50
13569;DHT22;6856;51.460;7.158;2022-12-07T14:37:46;9.30;66.60
13569;DHT22;6856;51.460;7.158;2022-12-07T14:40:22;9.30;66.60
13569;DHT22;6856;51.460;7.158;2022-12-07T14:43:01;9.30;66.50
13569;DHT22;6856;51.460;7.158;2022-12-07T14:45:37;9.20;66.40
13569;DHT22;6856;51.460;7.158;2022-12-07T14:48:14;9.20;66.30
13569;DHT22;6856;51.460;7.158;2022-12-07T14:51:12;9.20;66.40
13569;DHT22;6856;51.460;7.158;2022-12-07T14:54:06;9.20;66.30
13569;DHT22;6856;51.460;7.158;2022-12-07T14:56:48;9.20;66.30
13569;DHT22;6856;51.460;7.158;2022-12-07T14:59:23;9.20;66.10
13569;DHT22;6856;51.460;7.158;2022-12-07T15:01:58;9.10;66.10
13569;DHT22;6856;51.460;7.158;2022-12-07T15:04:33;9.10;66.10
13569;DHT22;6856;51.460;7.158;2022-12-07T15:07:12;9.10;66.10
13569;DHT22;6856;51.460;7.158;2022-12-07T15:09:54;9.10;66.10
13569;DHT22;6856;51.460;7.158;2022-12-07T15:12:28;9.00;66.10
13569;DHT22;6856;51.460;7.158;2022-12-07T15:15:02;9.00;66.00
13569;DHT22;6856;51.460;7.158;2022-12-07T15:17:38;9.00;66.10
13569;DHT22;6856;51.460;7.158;2022-12-07T15:20:14;9.00;66.00
13569;DHT22;6856;51.460;7.158;2022-12-07T15:22:50;8.90;66.00
13569;DHT22;6856;51.460;7.158;2022-12-07T15:25:24;8.90;66.00
13569;DHT22;6856;51.460;7.158;2022-12-07T15:27:57;8.90;66.80
13569;DHT22;6856;51.460;7.158;2022-12-07T15:30:31;8.90;66.80
13569;DHT22;6856;51.460;7.158;2022-12-07T15:33:07;9.10;66.90
13569;DHT22;6856;51.460;7.158;2022-12-07T15:35:41;8.80;66.00
13569;DHT22;6856;51.460;7.158;2022-12-07T15:38:16;8.80;66.10
13569;DHT22;6856;51.460;7.158;2022-12-07T15:41:09;8.80;66.00
13569;DHT22;6856;51.460;7.158;2022-12-07T15:43:44;8.80;66.00
13569;DHT22;6856;51.460;7.158;2022-12-07T15:46:39;8.70;66.00
13569;DHT22;6856;51.460;7.158;2022-12-07T15:49:18;8.70;66.10
13569;DHT22;6856;51.460;7.158;2022-12-07T15:51:52;8.70;66.20
13569;DHT22;6856;51.460;7.158;2022-12-07T15:54:27;8.70;66.20
13569;DHT22;6856;51.460;7.158;2022-12-07T15:57:02;8.60;66.30
13569;DHT22;6856;51.460;7.158;2022-12-07T15:59:36;8.60;66.30
13569;DHT22;6856;51.460;7.158;2022-12-07T16:02:09;8.60;66.30
13569;DHT22;6856;51.460;7.158;2022-12-07T16:04:45;8.60;66.40
13569;DHT22;6856;51.460;7.158;2022-12-07T16:07:19;8.60;66.20
13569;DHT22;6856;51.460;7.158;2022-12-07T16:09:53;8.50;66.40
13569;DHT22;6856;51.460;7.158;2022-12-07T16:12:27;8.70;66.60
13569;DHT22;6856;51.460;7.158;2022-12-07T16:15:01;8.50;66.40
13569;DHT22;6856;51.460;7.158;2022-12-07T16:17:35;8.50;66.50
13569;DHT22;6856;51.460;7.158;2022-12-07T16:20:12;8.50;66.50
13569;DHT22;6856;51.460;7.158;2022-12-07T16:22:51;8.50;66.50
13569;DHT22;6856;51.460;7.158;2022-12-07T16:25:28;8.40;66.60
13569;DHT22;6856;51.460;7.158;2022-12-07T16:28:01;8.40;66.60
13569;DHT22;6856;51.460;7.158;2022-12-07T16:30:35;8.40;66.60
13569;DHT22;6856;51.460;7.158;2022-12-07T16:33:09;8.40;66.60
13569;DHT22;6856;51.460;7.158;2022-12-07T16:35:45;8.40;66.70
13569;DHT22;6856;51.460;7.158;2022-12-07T16:38:19;8.40;66.80
13569;DHT22;6856;51.460;7.158;2022-12-07T16:40:52;8.40;66.70
13569;DHT22;6856;51.460;7.158;2022-12-07T16:43:26;8.50;66.90
13569;DHT22;6856;51.460;7.158;2022-12-07T16:46:01;8.40;66.90
13569;DHT22;6856;51.460;7.158;2022-12-07T16:48:37;8.40;67.00
13569;DHT22;6856;51.460;7.158;2022-12-07T16:51:14;8.40;67.00
13569;DHT22;6856;51.460;7.158;2022-12-07T16:53:48;8.30;66.90
13569;DHT22;6856;51.460;7.158;2022-12-07T16:56:25;8.40;67.00
13569;DHT22;6856;51.460;7.158;2022-12-07T16:59:01;8.40;67.00
13569;DHT22;6856;51.460;7.158;2022-12-07T17:22:03;8.30;67.20
13569;DHT22;6856;51.460;7.158;2022-12-07T17:25:05;8.30;66.50
13569;DHT22;6856;51.460;7.158;2022-12-07T17:28:11;8.30;66.00
13569;DHT22;6856;51.460;7.158;2022-12-07T17:30:53;8.40;66.90
13569;DHT22;6856;51.460;7.158;2022-12-07T17:33:29;8.30;66.70
13569;DHT22;6856;51.460;7.158;2022-12-07T17:36:34;8.00;66.30
13569;DHT22;6856;51.460;7.158;2022-12-07T17:39:22;8.10;67.20
13569;DHT22;6856;51.460;7.158;2022-12-07T17:41:57;8.50;66.00
13569;DHT22;6856;51.460;7.158;2022-12-07T17:44:55;8.20;66.90
13569;DHT22;6856;51.460;7.158;2022-12-07T17:47:50;8.30;66.30
13569;DHT22;6856;51.460;7.158;2022-12-07T17:50:26;8.30;66.30
13569;DHT22;6856;51.460;7.158;2022-12-07T17:53:19;8.30;66.10
13569;DHT22;6856;51.460;7.158;2022-12-07T17:56:15;8.30;66.90
13569;DHT22;6856;51.460;7.158;2022-12-07T17:59:12;8.30;67.30
13569;DHT22;6856;51.460;7.158;2022-12-07T18:01:48;8.30;65.80